SCFR weather

Frutillar Airport
Frutillar, Los Lagos Region, Chile

Public forecast

Using degrees Celsius for public forecast. Weather courtesy of forecast.io.

METAR (pilot weather report)

Closest report is El Tepual Airport, 18.5 nm (34.3 km) S. Retrieved 2019/06/25 16:00 UTC (54 minutes ago):

SCTE 251600Z 01009KT 9999 BKN040 OVC070 07/06 Q1017 NOSIG

TAF (pilot weather forecast)

Closest forecast is El Tepual Airport, 18.5 nm (34.3 km) S. Retrieved 2019/06/25 12:00 UTC (5 hours ago):

TAF COR SCTE 251118Z 2512/2612 01005KT 9999 FEW025 SCT045 TN03/2512Z TX08/2517Z BECMG 2512/2514 9999 -SHRA SCT025 BKN045 BECMG 2515/2517 36013KT SCT016 BKN025 BECMG 2518/2520 36016G26KT 8000 -RA FEW012 BKN020 OVC030 TEMPO 2519/2603 36013KT 4000 +RA SCT008 OVC020 BECMG 2603/2605 29010KT 9000 -SHRA SCT010 BKN025 BECMG 2606/2608 9999 NSW SCT020 FEW035 TEMPO 2611/2612 BKN020 BKN035